sensor_id;sensor_type;location;lat;lon;timestamp;P1;durP1;ratioP1;P2;durP2;ratioP2
795;SDS011;381;48.770;9.188;2023-05-10T00:03:12;11.17;;;10.47;;
795;SDS011;381;48.770;9.188;2023-05-10T00:08:14;9.87;;;9.50;;
795;SDS011;381;48.770;9.188;2023-05-10T00:13:16;9.90;;;9.50;;
795;SDS011;381;48.770;9.188;2023-05-10T00:18:20;9.40;;;8.90;;
795;SDS011;381;48.770;9.188;2023-05-10T00:23:22;8.70;;;8.40;;
795;SDS011;381;48.770;9.188;2023-05-10T00:28:24;9.43;;;9.03;;
795;SDS011;381;48.770;9.188;2023-05-10T00:33:27;8.70;;;8.03;;
795;SDS011;381;48.770;9.188;2023-05-10T00:38:29;8.10;;;7.80;;
795;SDS011;381;48.770;9.188;2023-05-10T00:43:31;8.17;;;7.77;;
795;SDS011;381;48.770;9.188;2023-05-10T00:48:35;8.23;;;7.93;;
795;SDS011;381;48.770;9.188;2023-05-10T00:53:37;7.67;;;7.47;;
795;SDS011;381;48.770;9.188;2023-05-10T00:58:39;7.50;;;7.30;;
795;SDS011;381;48.770;9.188;2023-05-10T01:03:43;7.77;;;7.57;;
795;SDS011;381;48.770;9.188;2023-05-10T01:08:45;7.60;;;7.40;;
795;SDS011;381;48.770;9.188;2023-05-10T01:13:50;7.80;;;7.60;;
795;SDS011;381;48.770;9.188;2023-05-10T01:18:58;7.20;;;7.00;;
795;SDS011;381;48.770;9.188;2023-05-10T01:24:14;7.77;;;7.57;;
795;SDS011;381;48.770;9.188;2023-05-10T01:29:47;7.70;;;7.40;;
795;SDS011;381;48.770;9.188;2023-05-10T01:35:15;7.20;;;7.00;;
795;SDS011;381;48.770;9.188;2023-05-10T01:40:23;6.80;;;6.60;;
795;SDS011;381;48.770;9.188;2023-05-10T01:45:32;7.60;;;7.40;;
795;SDS011;381;48.770;9.188;2023-05-10T01:50:41;7.37;;;7.07;;
795;SDS011;381;48.770;9.188;2023-05-10T01:55:47;7.53;;;7.27;;
795;SDS011;381;48.770;9.188;2023-05-10T02:00:50;7.60;;;7.30;;
795;SDS011;381;48.770;9.188;2023-05-10T02:05:57;7.27;;;7.07;;
795;SDS011;381;48.770;9.188;2023-05-10T02:11:00;7.20;;;6.90;;
795;SDS011;381;48.770;9.188;2023-05-10T02:16:04;8.77;;;7.67;;
795;SDS011;381;48.770;9.188;2023-05-10T02:21:08;7.87;;;7.23;;
795;SDS011;381;48.770;9.188;2023-05-10T02:26:13;7.57;;;7.17;;
795;SDS011;381;48.770;9.188;2023-05-10T02:31:16;7.00;;;6.80;;
795;SDS011;381;48.770;9.188;2023-05-10T02:36:20;7.53;;;7.33;;
795;SDS011;381;48.770;9.188;2023-05-10T02:41:23;6.90;;;6.70;;
795;SDS011;381;48.770;9.188;2023-05-10T02:46:28;7.27;;;7.07;;
795;SDS011;381;48.770;9.188;2023-05-10T02:51:34;7.30;;;7.10;;
795;SDS011;381;48.770;9.188;2023-05-10T02:56:40;6.50;;;6.30;;
795;SDS011;381;48.770;9.188;2023-05-10T03:01:48;6.40;;;6.10;;
795;SDS011;381;48.770;9.188;2023-05-10T03:06:51;6.10;;;5.80;;
795;SDS011;381;48.770;9.188;2023-05-10T03:11:55;6.70;;;6.50;;
795;SDS011;381;48.770;9.188;2023-05-10T03:17:06;6.10;;;5.90;;
795;SDS011;381;48.770;9.188;2023-05-10T03:22:19;7.10;;;6.90;;
795;SDS011;381;48.770;9.188;2023-05-10T03:27:26;7.10;;;6.90;;
795;SDS011;381;48.770;9.188;2023-05-10T03:32:30;5.57;;;5.37;;
795;SDS011;381;48.770;9.188;2023-05-10T03:37:36;6.90;;;6.70;;
795;SDS011;381;48.770;9.188;2023-05-10T03:42:39;7.50;;;7.20;;
795;SDS011;381;48.770;9.188;2023-05-10T03:47:41;7.03;;;6.73;;
795;SDS011;381;48.770;9.188;2023-05-10T03:52:45;6.90;;;6.60;;
795;SDS011;381;48.770;9.188;2023-05-10T03:57:48;6.50;;;6.30;;
795;SDS011;381;48.770;9.188;2023-05-10T04:02:51;8.00;;;7.60;;
795;SDS011;381;48.770;9.188;2023-05-10T04:07:55;6.43;;;6.13;;
795;SDS011;381;48.770;9.188;2023-05-10T04:12:58;6.13;;;5.93;;
795;SDS011;381;48.770;9.188;2023-05-10T04:18:00;6.73;;;6.53;;
795;SDS011;381;48.770;9.188;2023-05-10T04:23:03;4.23;;;4.13;;
795;SDS011;381;48.770;9.188;2023-05-10T04:28:05;7.10;;;6.80;;
795;SDS011;381;48.770;9.188;2023-05-10T04:33:07;6.23;;;6.03;;
795;SDS011;381;48.770;9.188;2023-05-10T04:38:10;5.80;;;5.60;;
795;SDS011;381;48.770;9.188;2023-05-10T04:43:12;5.53;;;5.30;;
795;SDS011;381;48.770;9.188;2023-05-10T04:48:14;3.50;;;3.40;;
795;SDS011;381;48.770;9.188;2023-05-10T04:53:18;5.80;;;5.50;;
795;SDS011;381;48.770;9.188;2023-05-10T04:58:20;4.30;;;4.10;;
795;SDS011;381;48.770;9.188;2023-05-10T05:03:22;3.90;;;3.60;;
795;SDS011;381;48.770;9.188;2023-05-10T05:08:26;3.90;;;3.80;;
795;SDS011;381;48.770;9.188;2023-05-10T05:13:28;4.37;;;4.07;;
795;SDS011;381;48.770;9.188;2023-05-10T05:18:30;3.73;;;3.53;;
795;SDS011;381;48.770;9.188;2023-05-10T05:23:33;2.87;;;2.67;;
795;SDS011;381;48.770;9.188;2023-05-10T05:28:35;3.57;;;3.40;;
795;SDS011;381;48.770;9.188;2023-05-10T05:33:38;2.53;;;2.43;;
795;SDS011;381;48.770;9.188;2023-05-10T05:38:41;2.67;;;2.57;;
795;SDS011;381;48.770;9.188;2023-05-10T05:43:43;3.53;;;3.37;;
795;SDS011;381;48.770;9.188;2023-05-10T05:48:45;3.90;;;3.67;;
795;SDS011;381;48.770;9.188;2023-05-10T05:53:49;3.20;;;3.10;;
795;SDS011;381;48.770;9.188;2023-05-10T05:58:51;3.73;;;3.53;;
795;SDS011;381;48.770;9.188;2023-05-10T06:03:53;4.20;;;3.20;;
795;SDS011;381;48.770;9.188;2023-05-10T06:08:56;2.90;;;2.47;;
795;SDS011;381;48.770;9.188;2023-05-10T06:13:58;3.40;;;3.10;;
795;SDS011;381;48.770;9.188;2023-05-10T06:19:01;3.00;;;2.80;;
795;SDS011;381;48.770;9.188;2023-05-10T06:24:05;4.60;;;4.30;;
795;SDS011;381;48.770;9.188;2023-05-10T06:29:07;3.37;;;3.17;;
795;SDS011;381;48.770;9.188;2023-05-10T06:34:09;3.00;;;2.80;;
795;SDS011;381;48.770;9.188;2023-05-10T06:39:13;2.67;;;2.57;;
795;SDS011;381;48.770;9.188;2023-05-10T06:44:15;2.90;;;2.70;;
795;SDS011;381;48.770;9.188;2023-05-10T06:49:17;2.43;;;2.23;;
795;SDS011;381;48.770;9.188;2023-05-10T06:54:21;3.20;;;3.10;;
795;SDS011;381;48.770;9.188;2023-05-10T06:59:23;2.80;;;2.63;;
795;SDS011;381;48.770;9.188;2023-05-10T07:04:25;2.93;;;2.73;;
795;SDS011;381;48.770;9.188;2023-05-10T07:09:29;2.70;;;2.60;;
795;SDS011;381;48.770;9.188;2023-05-10T07:14:31;2.60;;;2.40;;
795;SDS011;381;48.770;9.188;2023-05-10T07:19:33;2.97;;;2.80;;
795;SDS011;381;48.770;9.188;2023-05-10T07:24:37;2.67;;;2.47;;
795;SDS011;381;48.770;9.188;2023-05-10T07:29:39;2.63;;;2.53;;
795;SDS011;381;48.770;9.188;2023-05-10T07:34:42;2.73;;;1.87;;
795;SDS011;381;48.770;9.188;2023-05-10T07:39:45;3.33;;;1.90;;
795;SDS011;381;48.770;9.188;2023-05-10T07:44:48;2.40;;;2.20;;
795;SDS011;381;48.770;9.188;2023-05-10T07:49:50;1.93;;;1.83;;
795;SDS011;381;48.770;9.188;2023-05-10T07:54:53;1.67;;;1.57;;
795;SDS011;381;48.770;9.188;2023-05-10T07:59:57;2.00;;;1.90;;
795;SDS011;381;48.770;9.188;2023-05-10T08:04:59;2.10;;;1.90;;
795;SDS011;381;48.770;9.188;2023-05-10T08:10:02;1.87;;;1.77;;
795;SDS011;381;48.770;9.188;2023-05-10T08:15:05;2.37;;;2.17;;
795;SDS011;381;48.770;9.188;2023-05-10T08:20:08;1.60;;;1.50;;
795;SDS011;381;48.770;9.188;2023-05-10T08:25:14;1.70;;;1.60;;
795;SDS011;381;48.770;9.188;2023-05-10T08:30:16;1.37;;;1.37;;
795;SDS011;381;48.770;9.188;2023-05-10T08:35:18;1.60;;;1.50;;
795;SDS011;381;48.770;9.188;2023-05-10T08:40:21;2.10;;;1.57;;
795;SDS011;381;48.770;9.188;2023-05-10T08:45:27;1.77;;;1.63;;
795;SDS011;381;48.770;9.188;2023-05-10T08:50:33;1.70;;;1.60;;
795;SDS011;381;48.770;9.188;2023-05-10T08:55:39;1.73;;;1.63;;
795;SDS011;381;48.770;9.188;2023-05-10T09:00:43;1.50;;;1.43;;
795;SDS011;381;48.770;9.188;2023-05-10T09:05:45;2.40;;;1.50;;
795;SDS011;381;48.770;9.188;2023-05-10T09:10:49;1.40;;;1.40;;
795;SDS011;381;48.770;9.188;2023-05-10T09:15:51;3.33;;;1.23;;
795;SDS011;381;48.770;9.188;2023-05-10T09:20:54;2.30;;;2.20;;
795;SDS011;381;48.770;9.188;2023-05-10T09:26:04;1.57;;;1.47;;
795;SDS011;381;48.770;9.188;2023-05-10T09:31:07;3.90;;;1.70;;
795;SDS011;381;48.770;9.188;2023-05-10T09:36:09;1.23;;;1.23;;
795;SDS011;381;48.770;9.188;2023-05-10T09:41:16;2.23;;;1.33;;
795;SDS011;381;48.770;9.188;2023-05-10T09:46:19;2.33;;;1.50;;
795;SDS011;381;48.770;9.188;2023-05-10T09:51:21;2.90;;;1.60;;
795;SDS011;381;48.770;9.188;2023-05-10T09:56:35;2.97;;;1.20;;
795;SDS011;381;48.770;9.188;2023-05-10T10:01:39;1.40;;;1.30;;
795;SDS011;381;48.770;9.188;2023-05-10T10:06:42;1.30;;;1.30;;
795;SDS011;381;48.770;9.188;2023-05-10T10:11:46;1.70;;;1.40;;
795;SDS011;381;48.770;9.188;2023-05-10T10:16:48;0.97;;;0.97;;
795;SDS011;381;48.770;9.188;2023-05-10T10:21:51;1.40;;;1.40;;
795;SDS011;381;48.770;9.188;2023-05-10T10:26:55;1.53;;;1.43;;
795;SDS011;381;48.770;9.188;2023-05-10T10:32:07;1.63;;;1.53;;
795;SDS011;381;48.770;9.188;2023-05-10T10:37:19;1.13;;;1.13;;
795;SDS011;381;48.770;9.188;2023-05-10T10:47:53;1.60;;;1.50;;
795;SDS011;381;48.770;9.188;2023-05-10T10:53:10;2.20;;;1.40;;
795;SDS011;381;48.770;9.188;2023-05-10T10:58:28;1.83;;;1.73;;
795;SDS011;381;48.770;9.188;2023-05-10T11:03:31;1.53;;;1.03;;
795;SDS011;381;48.770;9.188;2023-05-10T11:08:34;3.10;;;1.23;;
795;SDS011;381;48.770;9.188;2023-05-10T11:13:46;1.60;;;1.50;;
795;SDS011;381;48.770;9.188;2023-05-10T11:18:53;2.33;;;1.60;;
795;SDS011;381;48.770;9.188;2023-05-10T11:24:00;1.53;;;1.43;;
795;SDS011;381;48.770;9.188;2023-05-10T11:29:07;1.30;;;1.20;;
795;SDS011;381;48.770;9.188;2023-05-10T11:34:09;1.10;;;1.10;;
795;SDS011;381;48.770;9.188;2023-05-10T11:39:25;1.70;;;1.27;;
795;SDS011;381;48.770;9.188;2023-05-10T11:44:30;1.13;;;1.13;;
795;SDS011;381;48.770;9.188;2023-05-10T11:49:32;1.67;;;1.53;;
795;SDS011;381;48.770;9.188;2023-05-10T11:54:35;1.90;;;1.20;;
795;SDS011;381;48.770;9.188;2023-05-10T11:59:39;1.93;;;1.50;;
795;SDS011;381;48.770;9.188;2023-05-10T12:04:41;1.83;;;1.73;;
795;SDS011;381;48.770;9.188;2023-05-10T12:09:43;1.70;;;1.20;;
795;SDS011;381;48.770;9.188;2023-05-10T12:14:49;2.40;;;1.60;;
795;SDS011;381;48.770;9.188;2023-05-10T12:19:52;1.57;;;1.47;;
795;SDS011;381;48.770;9.188;2023-05-10T12:24:54;3.23;;;1.73;;
795;SDS011;381;48.770;9.188;2023-05-10T12:29:59;2.70;;;1.50;;
795;SDS011;381;48.770;9.188;2023-05-10T12:35:03;1.80;;;1.70;;
795;SDS011;381;48.770;9.188;2023-05-10T12:40:06;2.30;;;1.70;;
795;SDS011;381;48.770;9.188;2023-05-10T12:45:11;1.70;;;1.60;;
795;SDS011;381;48.770;9.188;2023-05-10T12:50:13;1.67;;;1.50;;
795;SDS011;381;48.770;9.188;2023-05-10T12:55:15;1.87;;;1.77;;
795;SDS011;381;48.770;9.188;2023-05-10T13:00:19;2.80;;;2.57;;
795;SDS011;381;48.770;9.188;2023-05-10T13:05:21;5.33;;;2.33;;
795;SDS011;381;48.770;9.188;2023-05-10T13:10:23;1.80;;;1.70;;
795;SDS011;381;48.770;9.188;2023-05-10T13:15:27;1.90;;;1.70;;
795;SDS011;381;48.770;9.188;2023-05-10T13:20:29;1.97;;;1.83;;
795;SDS011;381;48.770;9.188;2023-05-10T13:25:31;2.20;;;1.67;;
795;SDS011;381;48.770;9.188;2023-05-10T13:30:35;2.33;;;1.90;;
795;SDS011;381;48.770;9.188;2023-05-10T13:35:38;2.97;;;2.03;;
795;SDS011;381;48.770;9.188;2023-05-10T13:40:40;0.97;;;0.90;;
795;SDS011;381;48.770;9.188;2023-05-10T13:45:43;3.43;;;1.47;;
795;SDS011;381;48.770;9.188;2023-05-10T13:50:45;1.60;;;1.50;;
795;SDS011;381;48.770;9.188;2023-05-10T13:55:48;1.73;;;1.63;;
795;SDS011;381;48.770;9.188;2023-05-10T14:00:52;2.30;;;1.97;;
795;SDS011;381;48.770;9.188;2023-05-10T14:05:54;2.00;;;1.90;;
795;SDS011;381;48.770;9.188;2023-05-10T14:10:56;2.07;;;1.83;;
795;SDS011;381;48.770;9.188;2023-05-10T14:15:59;3.00;;;1.70;;
795;SDS011;381;48.770;9.188;2023-05-10T14:21:02;3.17;;;1.77;;
795;SDS011;381;48.770;9.188;2023-05-10T14:26:04;2.47;;;1.80;;
795;SDS011;381;48.770;9.188;2023-05-10T14:31:08;2.20;;;2.00;;
795;SDS011;381;48.770;9.188;2023-05-10T14:36:10;1.77;;;1.67;;
795;SDS011;381;48.770;9.188;2023-05-10T14:41:12;1.30;;;1.30;;
795;SDS011;381;48.770;9.188;2023-05-10T14:46:19;2.00;;;1.90;;
795;SDS011;381;48.770;9.188;2023-05-10T14:51:21;1.93;;;1.80;;
795;SDS011;381;48.770;9.188;2023-05-10T14:56:23;2.00;;;1.90;;
795;SDS011;381;48.770;9.188;2023-05-10T15:01:27;3.33;;;1.57;;
795;SDS011;381;48.770;9.188;2023-05-10T15:06:32;2.53;;;1.80;;
795;SDS011;381;48.770;9.188;2023-05-10T15:11:35;1.90;;;1.80;;
795;SDS011;381;48.770;9.188;2023-05-10T15:16:38;2.63;;;1.90;;
795;SDS011;381;48.770;9.188;2023-05-10T15:21:41;1.70;;;1.60;;
795;SDS011;381;48.770;9.188;2023-05-10T15:26:44;2.10;;;1.90;;
795;SDS011;381;48.770;9.188;2023-05-10T15:31:48;4.90;;;2.03;;
795;SDS011;381;48.770;9.188;2023-05-10T15:36:50;2.60;;;1.70;;
795;SDS011;381;48.770;9.188;2023-05-10T15:41:53;2.30;;;1.67;;
795;SDS011;381;48.770;9.188;2023-05-10T15:46:56;1.67;;;1.37;;
795;SDS011;381;48.770;9.188;2023-05-10T15:51:58;1.70;;;1.60;;
795;SDS011;381;48.770;9.188;2023-05-10T15:57:00;1.53;;;1.43;;
795;SDS011;381;48.770;9.188;2023-05-10T16:02:04;1.53;;;1.40;;
795;SDS011;381;48.770;9.188;2023-05-10T16:07:06;1.80;;;1.70;;
795;SDS011;381;48.770;9.188;2023-05-10T16:12:09;3.20;;;2.80;;
795;SDS011;381;48.770;9.188;2023-05-10T16:17:12;2.57;;;2.37;;
795;SDS011;381;48.770;9.188;2023-05-10T16:22:15;2.40;;;1.73;;
795;SDS011;381;48.770;9.188;2023-05-10T16:27:17;2.13;;;1.90;;
795;SDS011;381;48.770;9.188;2023-05-10T16:32:21;2.97;;;2.00;;
795;SDS011;381;48.770;9.188;2023-05-10T16:37:23;1.93;;;1.83;;
795;SDS011;381;48.770;9.188;2023-05-10T16:42:26;1.70;;;1.60;;
795;SDS011;381;48.770;9.188;2023-05-10T16:47:33;1.90;;;1.80;;
795;SDS011;381;48.770;9.188;2023-05-10T16:52:55;2.17;;;2.07;;
795;SDS011;381;48.770;9.188;2023-05-10T16:57:57;1.70;;;1.60;;
795;SDS011;381;48.770;9.188;2023-05-10T17:03:00;1.77;;;1.47;;
795;SDS011;381;48.770;9.188;2023-05-10T17:08:03;1.97;;;1.83;;
795;SDS011;381;48.770;9.188;2023-05-10T17:13:05;1.50;;;1.40;;
795;SDS011;381;48.770;9.188;2023-05-10T17:18:08;3.57;;;2.33;;
795;SDS011;381;48.770;9.188;2023-05-10T17:23:11;1.70;;;1.60;;
795;SDS011;381;48.770;9.188;2023-05-10T17:28:14;1.57;;;1.47;;
795;SDS011;381;48.770;9.188;2023-05-10T17:33:16;2.70;;;2.50;;
795;SDS011;381;48.770;9.188;2023-05-10T17:38:19;1.70;;;1.70;;
795;SDS011;381;48.770;9.188;2023-05-10T17:43:21;2.70;;;2.33;;
795;SDS011;381;48.770;9.188;2023-05-10T17:48:25;1.87;;;1.50;;
795;SDS011;381;48.770;9.188;2023-05-10T17:53:28;3.10;;;2.57;;
795;SDS011;381;48.770;9.188;2023-05-10T17:58:31;1.90;;;1.80;;
795;SDS011;381;48.770;9.188;2023-05-10T18:03:33;2.60;;;2.10;;
795;SDS011;381;48.770;9.188;2023-05-10T18:08:36;1.60;;;1.60;;
795;SDS011;381;48.770;9.188;2023-05-10T18:13:38;2.00;;;1.90;;
795;SDS011;381;48.770;9.188;2023-05-10T18:18:41;1.70;;;1.60;;
795;SDS011;381;48.770;9.188;2023-05-10T18:23:44;2.17;;;1.77;;
795;SDS011;381;48.770;9.188;2023-05-10T18:28:46;2.00;;;1.90;;
795;SDS011;381;48.770;9.188;2023-05-10T18:33:48;2.33;;;2.23;;
795;SDS011;381;48.770;9.188;2023-05-10T18:38:52;2.50;;;2.30;;
795;SDS011;381;48.770;9.188;2023-05-10T18:43:54;2.90;;;2.00;;
795;SDS011;381;48.770;9.188;2023-05-10T18:48:56;2.40;;;2.20;;
795;SDS011;381;48.770;9.188;2023-05-10T18:54:00;1.83;;;1.73;;
795;SDS011;381;48.770;9.188;2023-05-10T18:59:02;2.20;;;2.10;;
795;SDS011;381;48.770;9.188;2023-05-10T19:04:04;2.00;;;1.90;;
795;SDS011;381;48.770;9.188;2023-05-10T19:09:08;1.97;;;1.87;;
795;SDS011;381;48.770;9.188;2023-05-10T19:14:11;2.50;;;2.40;;
795;SDS011;381;48.770;9.188;2023-05-10T19:19:13;2.77;;;2.57;;
795;SDS011;381;48.770;9.188;2023-05-10T19:24:17;5.17;;;3.03;;
795;SDS011;381;48.770;9.188;2023-05-10T19:29:22;4.10;;;2.60;;
795;SDS011;381;48.770;9.188;2023-05-10T19:34:24;5.73;;;2.47;;
795;SDS011;381;48.770;9.188;2023-05-10T19:39:28;2.77;;;2.57;;
795;SDS011;381;48.770;9.188;2023-05-10T19:44:31;3.00;;;2.80;;
795;SDS011;381;48.770;9.188;2023-05-10T19:49:33;2.00;;;1.90;;
795;SDS011;381;48.770;9.188;2023-05-10T19:54:37;2.50;;;2.40;;
795;SDS011;381;48.770;9.188;2023-05-10T19:59:39;2.87;;;2.67;;
795;SDS011;381;48.770;9.188;2023-05-10T20:04:42;3.60;;;2.30;;
795;SDS011;381;48.770;9.188;2023-05-10T20:09:45;2.77;;;2.67;;
795;SDS011;381;48.770;9.188;2023-05-10T20:14:47;2.70;;;2.50;;
795;SDS011;381;48.770;9.188;2023-05-10T20:19:49;2.83;;;2.63;;
795;SDS011;381;48.770;9.188;2023-05-10T20:24:53;2.50;;;2.40;;
795;SDS011;381;48.770;9.188;2023-05-10T20:29:56;2.43;;;2.23;;
795;SDS011;381;48.770;9.188;2023-05-10T20:34:58;3.23;;;2.30;;
795;SDS011;381;48.770;9.188;2023-05-10T20:40:02;2.70;;;2.50;;
795;SDS011;381;48.770;9.188;2023-05-10T20:45:05;2.73;;;2.53;;
795;SDS011;381;48.770;9.188;2023-05-10T20:50:08;2.30;;;2.20;;
795;SDS011;381;48.770;9.188;2023-05-10T20:55:12;2.30;;;2.20;;
795;SDS011;381;48.770;9.188;2023-05-10T21:00:14;2.10;;;2.00;;
795;SDS011;381;48.770;9.188;2023-05-10T21:05:16;2.57;;;2.47;;
795;SDS011;381;48.770;9.188;2023-05-10T21:10:20;2.07;;;2.00;;
795;SDS011;381;48.770;9.188;2023-05-10T21:15:22;2.90;;;2.00;;
795;SDS011;381;48.770;9.188;2023-05-10T21:20:24;2.03;;;1.83;;
795;SDS011;381;48.770;9.188;2023-05-10T21:25:28;1.90;;;1.80;;
795;SDS011;381;48.770;9.188;2023-05-10T21:30:30;2.07;;;2.00;;
795;SDS011;381;48.770;9.188;2023-05-10T21:35:33;2.00;;;1.80;;
795;SDS011;381;48.770;9.188;2023-05-10T21:40:36;1.70;;;1.70;;
795;SDS011;381;48.770;9.188;2023-05-10T21:45:39;1.87;;;1.77;;
795;SDS011;381;48.770;9.188;2023-05-10T21:50:41;1.80;;;1.70;;
795;SDS011;381;48.770;9.188;2023-05-10T21:55:44;2.20;;;2.10;;
795;SDS011;381;48.770;9.188;2023-05-10T22:00:46;2.10;;;2.00;;
795;SDS011;381;48.770;9.188;2023-05-10T22:05:49;1.70;;;1.60;;
795;SDS011;381;48.770;9.188;2023-05-10T22:10:52;2.30;;;2.20;;
795;SDS011;381;48.770;9.188;2023-05-10T22:15:54;7.50;;;2.17;;
795;SDS011;381;48.770;9.188;2023-05-10T22:20:59;2.60;;;2.40;;
795;SDS011;381;48.770;9.188;2023-05-10T22:26:02;1.90;;;1.80;;
795;SDS011;381;48.770;9.188;2023-05-10T22:31:07;2.13;;;2.07;;
795;SDS011;381;48.770;9.188;2023-05-10T22:36:10;2.20;;;2.10;;
795;SDS011;381;48.770;9.188;2023-05-10T22:41:15;2.60;;;2.50;;
795;SDS011;381;48.770;9.188;2023-05-10T22:46:18;2.20;;;2.10;;
795;SDS011;381;48.770;9.188;2023-05-10T22:51:20;2.43;;;2.23;;
795;SDS011;381;48.770;9.188;2023-05-10T22:56:23;2.30;;;2.20;;
795;SDS011;381;48.770;9.188;2023-05-10T23:01:26;2.20;;;2.10;;
795;SDS011;381;48.770;9.188;2023-05-10T23:06:28;1.93;;;1.83;;
795;SDS011;381;48.770;9.188;2023-05-10T23:11:32;2.10;;;2.00;;
795;SDS011;381;48.770;9.188;2023-05-10T23:16:36;2.13;;;2.03;;
795;SDS011;381;48.770;9.188;2023-05-10T23:21:38;3.33;;;2.23;;
795;SDS011;381;48.770;9.188;2023-05-10T23:26:41;2.37;;;2.27;;
795;SDS011;381;48.770;9.188;2023-05-10T23:31:47;2.00;;;1.90;;
795;SDS011;381;48.770;9.188;2023-05-10T23:36:49;3.63;;;1.90;;
795;SDS011;381;48.770;9.188;2023-05-10T23:41:53;2.40;;;2.30;;
795;SDS011;381;48.770;9.188;2023-05-10T23:46:55;2.40;;;2.30;;
795;SDS011;381;48.770;9.188;2023-05-10T23:51:57;2.63;;;2.43;;
795;SDS011;381;48.770;9.188;2023-05-10T23:57:01;3.93;;;2.50;;
